sensor_id;sensor_type;location;lat;lon;timestamp;P1;durP1;ratioP1;P2;durP2;ratioP2
14797;SDS011;7490;63.708;20.368;2023-12-22T00:00:23;3.37;;;2.60;;
14797;SDS011;7490;63.708;20.368;2023-12-22T00:02:49;3.23;;;2.67;;
14797;SDS011;7490;63.708;20.368;2023-12-22T00:05:14;3.67;;;2.90;;
14797;SDS011;7490;63.708;20.368;2023-12-22T00:07:40;3.37;;;2.60;;
14797;SDS011;7490;63.708;20.368;2023-12-22T00:10:06;3.07;;;2.77;;
14797;SDS011;7490;63.708;20.368;2023-12-22T00:12:32;3.27;;;2.63;;
14797;SDS011;7490;63.708;20.368;2023-12-22T00:14:57;3.03;;;2.30;;
14797;SDS011;7490;63.708;20.368;2023-12-22T00:17:23;3.07;;;2.77;;
14797;SDS011;7490;63.708;20.368;2023-12-22T00:19:48;3.30;;;2.27;;
14797;SDS011;7490;63.708;20.368;2023-12-22T00:22:14;3.07;;;2.63;;
14797;SDS011;7490;63.708;20.368;2023-12-22T00:24:40;3.47;;;2.80;;
14797;SDS011;7490;63.708;20.368;2023-12-22T00:27:05;3.43;;;2.50;;
14797;SDS011;7490;63.708;20.368;2023-12-22T00:29:31;3.43;;;2.90;;
14797;SDS011;7490;63.708;20.368;2023-12-22T00:32:00;3.50;;;2.70;;
14797;SDS011;7490;63.708;20.368;2023-12-22T00:34:26;2.70;;;2.47;;
14797;SDS011;7490;63.708;20.368;2023-12-22T00:36:52;3.50;;;2.93;;
14797;SDS011;7490;63.708;20.368;2023-12-22T00:39:17;2.73;;;2.47;;
14797;SDS011;7490;63.708;20.368;2023-12-22T00:41:43;3.07;;;2.77;;
14797;SDS011;7490;63.708;20.368;2023-12-22T00:44:08;3.03;;;2.80;;
14797;SDS011;7490;63.708;20.368;2023-12-22T00:46:34;3.97;;;3.00;;
14797;SDS011;7490;63.708;20.368;2023-12-22T00:49:00;3.40;;;2.57;;
14797;SDS011;7490;63.708;20.368;2023-12-22T00:51:25;3.20;;;2.43;;
14797;SDS011;7490;63.708;20.368;2023-12-22T00:53:51;2.60;;;2.40;;
14797;SDS011;7490;63.708;20.368;2023-12-22T00:56:16;2.57;;;2.37;;
14797;SDS011;7490;63.708;20.368;2023-12-22T00:58:42;3.07;;;2.77;;
14797;SDS011;7490;63.708;20.368;2023-12-22T01:01:07;3.37;;;2.60;;
14797;SDS011;7490;63.708;20.368;2023-12-22T01:03:33;2.93;;;2.53;;
14797;SDS011;7490;63.708;20.368;2023-12-22T01:05:59;3.27;;;2.50;;
14797;SDS011;7490;63.708;20.368;2023-12-22T01:08:24;3.13;;;2.30;;
14797;SDS011;7490;63.708;20.368;2023-12-22T01:10:50;2.40;;;2.20;;
14797;SDS011;7490;63.708;20.368;2023-12-22T01:13:15;2.70;;;2.50;;
14797;SDS011;7490;63.708;20.368;2023-12-22T01:15:41;2.77;;;2.47;;
14797;SDS011;7490;63.708;20.368;2023-12-22T01:18:08;3.33;;;2.60;;
14797;SDS011;7490;63.708;20.368;2023-12-22T01:20:35;3.03;;;2.40;;
14797;SDS011;7490;63.708;20.368;2023-12-22T01:23:00;3.90;;;2.40;;
14797;SDS011;7490;63.708;20.368;2023-12-22T01:25:26;2.93;;;2.50;;
14797;SDS011;7490;63.708;20.368;2023-12-22T01:27:52;2.60;;;2.40;;
14797;SDS011;7490;63.708;20.368;2023-12-22T01:30:18;3.10;;;2.20;;
14797;SDS011;7490;63.708;20.368;2023-12-22T01:32:44;3.13;;;2.00;;
14797;SDS011;7490;63.708;20.368;2023-12-22T01:35:09;3.30;;;2.77;;
14797;SDS011;7490;63.708;20.368;2023-12-22T01:37:36;2.57;;;2.00;;
14797;SDS011;7490;63.708;20.368;2023-12-22T01:40:02;2.30;;;2.10;;
14797;SDS011;7490;63.708;20.368;2023-12-22T01:42:28;2.03;;;1.87;;
14797;SDS011;7490;63.708;20.368;2023-12-22T01:44:54;2.73;;;2.53;;
14797;SDS011;7490;63.708;20.368;2023-12-22T01:47:20;2.10;;;1.90;;
14797;SDS011;7490;63.708;20.368;2023-12-22T01:49:46;3.50;;;2.10;;
14797;SDS011;7490;63.708;20.368;2023-12-22T01:52:13;2.63;;;2.40;;
14797;SDS011;7490;63.708;20.368;2023-12-22T01:54:39;2.23;;;2.03;;
14797;SDS011;7490;63.708;20.368;2023-12-22T01:57:04;2.60;;;2.40;;
14797;SDS011;7490;63.708;20.368;2023-12-22T01:59:31;2.03;;;1.83;;
14797;SDS011;7490;63.708;20.368;2023-12-22T02:01:59;4.63;;;2.37;;
14797;SDS011;7490;63.708;20.368;2023-12-22T02:04:27;2.30;;;2.10;;
14797;SDS011;7490;63.708;20.368;2023-12-22T02:06:55;2.20;;;2.00;;
14797;SDS011;7490;63.708;20.368;2023-12-22T02:09:25;2.57;;;2.00;;
14797;SDS011;7490;63.708;20.368;2023-12-22T02:11:51;2.03;;;1.80;;
14797;SDS011;7490;63.708;20.368;2023-12-22T02:14:17;2.30;;;2.10;;
14797;SDS011;7490;63.708;20.368;2023-12-22T02:16:46;2.30;;;2.10;;
14797;SDS011;7490;63.708;20.368;2023-12-22T02:22:08;2.43;;;1.90;;
14797;SDS011;7490;63.708;20.368;2023-12-22T02:24:34;1.93;;;1.83;;
14797;SDS011;7490;63.708;20.368;2023-12-22T02:32:40;2.30;;;2.10;;
14797;SDS011;7490;63.708;20.368;2023-12-22T02:35:23;2.30;;;2.00;;
14797;SDS011;7490;63.708;20.368;2023-12-22T02:37:51;1.70;;;1.60;;
14797;SDS011;7490;63.708;20.368;2023-12-22T02:40:17;2.23;;;1.70;;
14797;SDS011;7490;63.708;20.368;2023-12-22T02:42:44;4.00;;;1.80;;
14797;SDS011;7490;63.708;20.368;2023-12-22T02:45:13;1.70;;;1.60;;
14797;SDS011;7490;63.708;20.368;2023-12-22T02:47:40;2.10;;;1.77;;
14797;SDS011;7490;63.708;20.368;2023-12-22T02:50:07;1.80;;;1.63;;
14797;SDS011;7490;63.708;20.368;2023-12-22T02:52:33;1.90;;;1.80;;
14797;SDS011;7490;63.708;20.368;2023-12-22T02:54:58;4.63;;;2.33;;
14797;SDS011;7490;63.708;20.368;2023-12-22T02:57:24;1.77;;;1.67;;
14797;SDS011;7490;63.708;20.368;2023-12-22T02:59:50;2.90;;;2.00;;
14797;SDS011;7490;63.708;20.368;2023-12-22T03:02:15;2.43;;;2.07;;
14797;SDS011;7490;63.708;20.368;2023-12-22T03:04:41;2.57;;;2.10;;
14797;SDS011;7490;63.708;20.368;2023-12-22T03:07:06;2.00;;;1.80;;
14797;SDS011;7490;63.708;20.368;2023-12-22T03:09:32;2.20;;;2.00;;
14797;SDS011;7490;63.708;20.368;2023-12-22T03:11:59;2.23;;;2.00;;
14797;SDS011;7490;63.708;20.368;2023-12-22T03:14:30;3.87;;;2.23;;
14797;SDS011;7490;63.708;20.368;2023-12-22T03:16:58;2.23;;;1.87;;
14797;SDS011;7490;63.708;20.368;2023-12-22T03:19:30;3.77;;;2.43;;
14797;SDS011;7490;63.708;20.368;2023-12-22T03:21:56;2.47;;;2.27;;
14797;SDS011;7490;63.708;20.368;2023-12-22T03:24:22;3.63;;;2.40;;
14797;SDS011;7490;63.708;20.368;2023-12-22T03:26:48;2.67;;;2.40;;
14797;SDS011;7490;63.708;20.368;2023-12-22T03:29:15;3.53;;;2.80;;
14797;SDS011;7490;63.708;20.368;2023-12-22T03:31:40;4.60;;;2.80;;
14797;SDS011;7490;63.708;20.368;2023-12-22T03:34:06;3.30;;;3.00;;
14797;SDS011;7490;63.708;20.368;2023-12-22T03:36:32;3.60;;;2.90;;
14797;SDS011;7490;63.708;20.368;2023-12-22T03:38:58;5.07;;;2.77;;
14797;SDS011;7490;63.708;20.368;2023-12-22T03:41:23;3.27;;;2.63;;
14797;SDS011;7490;63.708;20.368;2023-12-22T03:43:49;4.47;;;2.60;;
14797;SDS011;7490;63.708;20.368;2023-12-22T03:46:15;3.13;;;2.73;;
14797;SDS011;7490;63.708;20.368;2023-12-22T03:48:40;3.70;;;2.80;;
14797;SDS011;7490;63.708;20.368;2023-12-22T03:51:06;2.97;;;2.60;;
14797;SDS011;7490;63.708;20.368;2023-12-22T03:53:32;3.00;;;2.73;;
14797;SDS011;7490;63.708;20.368;2023-12-22T03:55:57;3.50;;;2.80;;
14797;SDS011;7490;63.708;20.368;2023-12-22T03:58:23;3.27;;;2.53;;
14797;SDS011;7490;63.708;20.368;2023-12-22T04:00:49;2.50;;;2.30;;
14797;SDS011;7490;63.708;20.368;2023-12-22T04:03:15;3.87;;;3.20;;
14797;SDS011;7490;63.708;20.368;2023-12-22T04:05:40;2.53;;;2.33;;
14797;SDS011;7490;63.708;20.368;2023-12-22T04:08:06;2.67;;;2.43;;
14797;SDS011;7490;63.708;20.368;2023-12-22T04:10:32;3.07;;;2.63;;
14797;SDS011;7490;63.708;20.368;2023-12-22T04:12:57;3.47;;;2.30;;
14797;SDS011;7490;63.708;20.368;2023-12-22T04:15:23;3.90;;;2.47;;
14797;SDS011;7490;63.708;20.368;2023-12-22T04:17:49;4.43;;;2.70;;
14797;SDS011;7490;63.708;20.368;2023-12-22T04:20:15;3.00;;;2.17;;
14797;SDS011;7490;63.708;20.368;2023-12-22T04:22:40;3.23;;;2.03;;
14797;SDS011;7490;63.708;20.368;2023-12-22T04:25:07;2.43;;;2.23;;
14797;SDS011;7490;63.708;20.368;2023-12-22T04:27:36;2.80;;;2.20;;
14797;SDS011;7490;63.708;20.368;2023-12-22T04:30:02;2.43;;;2.13;;
14797;SDS011;7490;63.708;20.368;2023-12-22T04:32:28;2.67;;;2.40;;
14797;SDS011;7490;63.708;20.368;2023-12-22T04:34:53;2.57;;;2.27;;
14797;SDS011;7490;63.708;20.368;2023-12-22T04:37:19;3.87;;;2.53;;
14797;SDS011;7490;63.708;20.368;2023-12-22T04:39:45;3.23;;;2.70;;
14797;SDS011;7490;63.708;20.368;2023-12-22T04:42:11;3.33;;;2.60;;
14797;SDS011;7490;63.708;20.368;2023-12-22T04:44:36;4.00;;;2.30;;
14797;SDS011;7490;63.708;20.368;2023-12-22T04:47:02;3.63;;;2.30;;
14797;SDS011;7490;63.708;20.368;2023-12-22T04:49:28;3.90;;;2.43;;
14797;SDS011;7490;63.708;20.368;2023-12-22T04:51:53;3.67;;;2.90;;
14797;SDS011;7490;63.708;20.368;2023-12-22T04:54:19;3.00;;;2.40;;
14797;SDS011;7490;63.708;20.368;2023-12-22T04:56:44;4.37;;;2.90;;
14797;SDS011;7490;63.708;20.368;2023-12-22T04:59:10;3.20;;;2.50;;
14797;SDS011;7490;63.708;20.368;2023-12-22T05:01:36;4.40;;;3.10;;
14797;SDS011;7490;63.708;20.368;2023-12-22T05:04:01;3.83;;;2.80;;
14797;SDS011;7490;63.708;20.368;2023-12-22T05:06:28;4.37;;;2.87;;
14797;SDS011;7490;63.708;20.368;2023-12-22T05:08:56;4.27;;;3.23;;
14797;SDS011;7490;63.708;20.368;2023-12-22T05:11:22;6.57;;;2.90;;
14797;SDS011;7490;63.708;20.368;2023-12-22T05:13:48;4.10;;;3.00;;
14797;SDS011;7490;63.708;20.368;2023-12-22T05:16:13;4.83;;;3.30;;
14797;SDS011;7490;63.708;20.368;2023-12-22T05:18:39;5.23;;;2.97;;
14797;SDS011;7490;63.708;20.368;2023-12-22T05:21:05;3.30;;;2.80;;
14797;SDS011;7490;63.708;20.368;2023-12-22T05:23:30;4.00;;;3.17;;
14797;SDS011;7490;63.708;20.368;2023-12-22T05:25:56;4.97;;;3.10;;
14797;SDS011;7490;63.708;20.368;2023-12-22T05:28:22;4.40;;;2.70;;
14797;SDS011;7490;63.708;20.368;2023-12-22T05:30:47;3.60;;;2.67;;
14797;SDS011;7490;63.708;20.368;2023-12-22T05:33:13;3.53;;;2.50;;
14797;SDS011;7490;63.708;20.368;2023-12-22T05:35:38;3.83;;;2.90;;
14797;SDS011;7490;63.708;20.368;2023-12-22T05:38:04;3.17;;;2.50;;
14797;SDS011;7490;63.708;20.368;2023-12-22T05:40:31;5.30;;;3.00;;
14797;SDS011;7490;63.708;20.368;2023-12-22T05:42:57;3.70;;;2.80;;
14797;SDS011;7490;63.708;20.368;2023-12-22T05:45:22;3.53;;;2.80;;
14797;SDS011;7490;63.708;20.368;2023-12-22T05:47:49;4.13;;;2.80;;
14797;SDS011;7490;63.708;20.368;2023-12-22T05:50:15;4.07;;;2.50;;
14797;SDS011;7490;63.708;20.368;2023-12-22T05:52:41;3.80;;;2.70;;
14797;SDS011;7490;63.708;20.368;2023-12-22T05:55:09;3.60;;;2.60;;
14797;SDS011;7490;63.708;20.368;2023-12-22T05:57:35;3.73;;;2.67;;
14797;SDS011;7490;63.708;20.368;2023-12-22T06:00:01;4.13;;;2.60;;
14797;SDS011;7490;63.708;20.368;2023-12-22T06:02:29;2.93;;;2.50;;
14797;SDS011;7490;63.708;20.368;2023-12-22T06:04:55;3.83;;;2.80;;
14797;SDS011;7490;63.708;20.368;2023-12-22T06:07:20;2.60;;;2.37;;
14797;SDS011;7490;63.708;20.368;2023-12-22T06:09:46;5.03;;;2.60;;
14797;SDS011;7490;63.708;20.368;2023-12-22T06:12:12;3.30;;;2.87;;
14797;SDS011;7490;63.708;20.368;2023-12-22T06:14:37;3.87;;;3.13;;
14797;SDS011;7490;63.708;20.368;2023-12-22T06:17:03;3.90;;;2.70;;
14797;SDS011;7490;63.708;20.368;2023-12-22T06:19:29;3.53;;;2.67;;
14797;SDS011;7490;63.708;20.368;2023-12-22T06:21:55;3.30;;;2.63;;
14797;SDS011;7490;63.708;20.368;2023-12-22T06:24:22;3.40;;;2.57;;
14797;SDS011;7490;63.708;20.368;2023-12-22T06:26:48;3.30;;;2.53;;
14797;SDS011;7490;63.708;20.368;2023-12-22T06:29:14;4.17;;;2.77;;
14797;SDS011;7490;63.708;20.368;2023-12-22T06:31:40;2.97;;;2.67;;
14797;SDS011;7490;63.708;20.368;2023-12-22T06:34:06;3.37;;;2.57;;
14797;SDS011;7490;63.708;20.368;2023-12-22T06:36:31;2.60;;;2.40;;
14797;SDS011;7490;63.708;20.368;2023-12-22T06:38:57;2.93;;;2.30;;
14797;SDS011;7490;63.708;20.368;2023-12-22T06:43:49;2.80;;;2.37;;
14797;SDS011;7490;63.708;20.368;2023-12-22T06:46:16;3.10;;;2.23;;
14797;SDS011;7490;63.708;20.368;2023-12-22T06:48:46;3.20;;;2.40;;
14797;SDS011;7490;63.708;20.368;2023-12-22T06:51:18;3.33;;;2.27;;
14797;SDS011;7490;63.708;20.368;2023-12-22T06:53:45;2.73;;;2.20;;
14797;SDS011;7490;63.708;20.368;2023-12-22T06:56:21;2.27;;;2.07;;
14797;SDS011;7490;63.708;20.368;2023-12-22T06:58:51;3.00;;;2.13;;
14797;SDS011;7490;63.708;20.368;2023-12-22T07:01:21;2.13;;;1.93;;
14797;SDS011;7490;63.708;20.368;2023-12-22T07:03:48;3.83;;;2.10;;
14797;SDS011;7490;63.708;20.368;2023-12-22T07:06:18;2.70;;;1.93;;
14797;SDS011;7490;63.708;20.368;2023-12-22T07:11:45;2.37;;;2.10;;
14797;SDS011;7490;63.708;20.368;2023-12-22T07:14:11;3.03;;;1.93;;
14797;SDS011;7490;63.708;20.368;2023-12-22T07:16:37;2.00;;;1.80;;
14797;SDS011;7490;63.708;20.368;2023-12-22T07:19:03;2.83;;;1.97;;
14797;SDS011;7490;63.708;20.368;2023-12-22T07:21:30;3.77;;;2.27;;
14797;SDS011;7490;63.708;20.368;2023-12-22T07:23:56;2.00;;;1.90;;
14797;SDS011;7490;63.708;20.368;2023-12-22T07:26:23;3.17;;;2.30;;
14797;SDS011;7490;63.708;20.368;2023-12-22T07:28:49;3.33;;;2.30;;
14797;SDS011;7490;63.708;20.368;2023-12-22T07:31:15;2.53;;;1.90;;
14797;SDS011;7490;63.708;20.368;2023-12-22T07:33:40;2.97;;;2.07;;
14797;SDS011;7490;63.708;20.368;2023-12-22T07:36:06;2.80;;;2.20;;
14797;SDS011;7490;63.708;20.368;2023-12-22T07:38:32;4.17;;;2.40;;
14797;SDS011;7490;63.708;20.368;2023-12-22T07:40:58;3.67;;;2.63;;
14797;SDS011;7490;63.708;20.368;2023-12-22T07:43:24;4.33;;;2.40;;
14797;SDS011;7490;63.708;20.368;2023-12-22T07:45:50;3.30;;;2.57;;
14797;SDS011;7490;63.708;20.368;2023-12-22T07:48:16;3.27;;;2.47;;
14797;SDS011;7490;63.708;20.368;2023-12-22T07:50:42;2.87;;;2.50;;
14797;SDS011;7490;63.708;20.368;2023-12-22T07:53:08;4.27;;;2.77;;
14797;SDS011;7490;63.708;20.368;2023-12-22T07:55:34;3.60;;;2.50;;
14797;SDS011;7490;63.708;20.368;2023-12-22T07:58:00;4.77;;;2.60;;
14797;SDS011;7490;63.708;20.368;2023-12-22T08:00:25;3.90;;;2.63;;
14797;SDS011;7490;63.708;20.368;2023-12-22T08:02:51;3.07;;;2.30;;
14797;SDS011;7490;63.708;20.368;2023-12-22T08:05:18;5.07;;;2.57;;
14797;SDS011;7490;63.708;20.368;2023-12-22T08:07:44;3.70;;;2.60;;
14797;SDS011;7490;63.708;20.368;2023-12-22T08:10:09;4.23;;;2.40;;
14797;SDS011;7490;63.708;20.368;2023-12-22T08:12:35;3.23;;;2.20;;
14797;SDS011;7490;63.708;20.368;2023-12-22T08:15:01;2.43;;;2.20;;
14797;SDS011;7490;63.708;20.368;2023-12-22T08:17:27;2.33;;;2.07;;
14797;SDS011;7490;63.708;20.368;2023-12-22T08:19:53;3.23;;;2.40;;
14797;SDS011;7490;63.708;20.368;2023-12-22T08:22:18;3.03;;;2.30;;
14797;SDS011;7490;63.708;20.368;2023-12-22T08:24:44;4.17;;;2.47;;
14797;SDS011;7490;63.708;20.368;2023-12-22T08:27:10;2.20;;;2.00;;
14797;SDS011;7490;63.708;20.368;2023-12-22T08:29:35;2.40;;;2.20;;
14797;SDS011;7490;63.708;20.368;2023-12-22T08:32:01;3.37;;;2.50;;
14797;SDS011;7490;63.708;20.368;2023-12-22T08:34:27;4.33;;;2.20;;
14797;SDS011;7490;63.708;20.368;2023-12-22T08:36:53;3.83;;;2.30;;
14797;SDS011;7490;63.708;20.368;2023-12-22T08:39:19;2.53;;;1.87;;
14797;SDS011;7490;63.708;20.368;2023-12-22T08:41:45;2.37;;;1.97;;
14797;SDS011;7490;63.708;20.368;2023-12-22T08:44:11;3.50;;;2.20;;
14797;SDS011;7490;63.708;20.368;2023-12-22T08:46:39;2.27;;;2.07;;
14797;SDS011;7490;63.708;20.368;2023-12-22T08:49:05;2.37;;;2.10;;
14797;SDS011;7490;63.708;20.368;2023-12-22T08:51:32;2.30;;;2.03;;
14797;SDS011;7490;63.708;20.368;2023-12-22T08:53:59;2.37;;;2.00;;
14797;SDS011;7490;63.708;20.368;2023-12-22T08:56:24;2.77;;;2.33;;
14797;SDS011;7490;63.708;20.368;2023-12-22T08:58:51;1.93;;;1.80;;
14797;SDS011;7490;63.708;20.368;2023-12-22T09:01:20;2.70;;;1.97;;
14797;SDS011;7490;63.708;20.368;2023-12-22T09:03:47;4.70;;;2.03;;
14797;SDS011;7490;63.708;20.368;2023-12-22T09:06:14;4.03;;;2.00;;
14797;SDS011;7490;63.708;20.368;2023-12-22T09:08:43;3.90;;;1.90;;
14797;SDS011;7490;63.708;20.368;2023-12-22T09:11:13;2.83;;;2.10;;
14797;SDS011;7490;63.708;20.368;2023-12-22T09:13:41;2.13;;;1.93;;
14797;SDS011;7490;63.708;20.368;2023-12-22T09:16:07;2.80;;;1.90;;
14797;SDS011;7490;63.708;20.368;2023-12-22T09:18:34;2.80;;;2.03;;
14797;SDS011;7490;63.708;20.368;2023-12-22T09:21:00;3.00;;;2.20;;
14797;SDS011;7490;63.708;20.368;2023-12-22T09:23:26;4.93;;;2.10;;
14797;SDS011;7490;63.708;20.368;2023-12-22T09:25:52;2.43;;;1.83;;
14797;SDS011;7490;63.708;20.368;2023-12-22T09:28:18;3.80;;;2.47;;
14797;SDS011;7490;63.708;20.368;2023-12-22T09:30:43;3.30;;;2.20;;
14797;SDS011;7490;63.708;20.368;2023-12-22T09:33:09;3.90;;;2.53;;
14797;SDS011;7490;63.708;20.368;2023-12-22T09:35:35;2.27;;;2.03;;
14797;SDS011;7490;63.708;20.368;2023-12-22T09:38:01;1.90;;;1.73;;
14797;SDS011;7490;63.708;20.368;2023-12-22T09:40:27;1.83;;;1.73;;
14797;SDS011;7490;63.708;20.368;2023-12-22T09:42:54;3.07;;;2.27;;
14797;SDS011;7490;63.708;20.368;2023-12-22T09:45:22;4.03;;;2.43;;
14797;SDS011;7490;63.708;20.368;2023-12-22T09:47:49;5.23;;;2.60;;
14797;SDS011;7490;63.708;20.368;2023-12-22T09:50:16;2.60;;;2.23;;
14797;SDS011;7490;63.708;20.368;2023-12-22T09:52:43;4.27;;;2.63;;
14797;SDS011;7490;63.708;20.368;2023-12-22T09:55:10;3.83;;;2.23;;
14797;SDS011;7490;63.708;20.368;2023-12-22T09:57:39;3.87;;;2.60;;
14797;SDS011;7490;63.708;20.368;2023-12-22T10:00:09;3.87;;;2.43;;
14797;SDS011;7490;63.708;20.368;2023-12-22T10:02:37;2.57;;;2.00;;
14797;SDS011;7490;63.708;20.368;2023-12-22T10:05:04;3.97;;;2.50;;
14797;SDS011;7490;63.708;20.368;2023-12-22T10:07:30;3.63;;;2.40;;
14797;SDS011;7490;63.708;20.368;2023-12-22T10:09:58;4.33;;;2.47;;
14797;SDS011;7490;63.708;20.368;2023-12-22T10:12:25;4.63;;;2.90;;
14797;SDS011;7490;63.708;20.368;2023-12-22T10:14:54;3.07;;;2.20;;
14797;SDS011;7490;63.708;20.368;2023-12-22T10:17:20;3.30;;;2.27;;
14797;SDS011;7490;63.708;20.368;2023-12-22T10:19:46;3.23;;;2.40;;
14797;SDS011;7490;63.708;20.368;2023-12-22T10:22:12;3.63;;;2.40;;
14797;SDS011;7490;63.708;20.368;2023-12-22T10:24:41;3.63;;;2.47;;
14797;SDS011;7490;63.708;20.368;2023-12-22T10:27:08;3.90;;;2.33;;
14797;SDS011;7490;63.708;20.368;2023-12-22T10:29:36;2.57;;;2.13;;
14797;SDS011;7490;63.708;20.368;2023-12-22T10:32:02;5.83;;;2.57;;
14797;SDS011;7490;63.708;20.368;2023-12-22T10:34:29;3.50;;;2.20;;
14797;SDS011;7490;63.708;20.368;2023-12-22T10:36:55;3.90;;;2.27;;
14797;SDS011;7490;63.708;20.368;2023-12-22T10:39:22;3.37;;;2.30;;
14797;SDS011;7490;63.708;20.368;2023-12-22T10:41:48;3.00;;;2.00;;
14797;SDS011;7490;63.708;20.368;2023-12-22T10:44:16;3.40;;;2.13;;
14797;SDS011;7490;63.708;20.368;2023-12-22T10:46:42;3.40;;;1.90;;
14797;SDS011;7490;63.708;20.368;2023-12-22T10:49:08;4.30;;;1.77;;
14797;SDS011;7490;63.708;20.368;2023-12-22T10:51:34;4.53;;;2.00;;
14797;SDS011;7490;63.708;20.368;2023-12-22T10:54:00;2.20;;;2.00;;
14797;SDS011;7490;63.708;20.368;2023-12-22T10:56:25;3.00;;;1.90;;
14797;SDS011;7490;63.708;20.368;2023-12-22T10:58:53;2.37;;;2.17;;
14797;SDS011;7490;63.708;20.368;2023-12-22T11:01:20;3.20;;;1.80;;
14797;SDS011;7490;63.708;20.368;2023-12-22T11:03:48;2.87;;;2.00;;
14797;SDS011;7490;63.708;20.368;2023-12-22T11:06:15;2.03;;;1.83;;
14797;SDS011;7490;63.708;20.368;2023-12-22T11:08:43;2.90;;;1.97;;
14797;SDS011;7490;63.708;20.368;2023-12-22T11:11:13;2.30;;;1.83;;
14797;SDS011;7490;63.708;20.368;2023-12-22T11:13:45;4.07;;;2.70;;
14797;SDS011;7490;63.708;20.368;2023-12-22T11:16:12;2.63;;;2.00;;
14797;SDS011;7490;63.708;20.368;2023-12-22T11:18:39;3.67;;;2.20;;
14797;SDS011;7490;63.708;20.368;2023-12-22T11:21:06;3.03;;;2.07;;
14797;SDS011;7490;63.708;20.368;2023-12-22T11:23:35;2.80;;;2.20;;
14797;SDS011;7490;63.708;20.368;2023-12-22T11:26:02;2.50;;;2.00;;
14797;SDS011;7490;63.708;20.368;2023-12-22T11:28:29;3.37;;;2.40;;
14797;SDS011;7490;63.708;20.368;2023-12-22T11:30:58;2.83;;;2.20;;
14797;SDS011;7490;63.708;20.368;2023-12-22T11:33:24;2.77;;;2.03;;
14797;SDS011;7490;63.708;20.368;2023-12-22T11:35:52;5.97;;;2.40;;
14797;SDS011;7490;63.708;20.368;2023-12-22T11:38:20;3.50;;;1.90;;
14797;SDS011;7490;63.708;20.368;2023-12-22T11:40:46;5.00;;;2.10;;
14797;SDS011;7490;63.708;20.368;2023-12-22T11:43:15;3.33;;;2.10;;
14797;SDS011;7490;63.708;20.368;2023-12-22T11:45:42;3.00;;;1.87;;
14797;SDS011;7490;63.708;20.368;2023-12-22T11:48:08;2.77;;;2.20;;
14797;SDS011;7490;63.708;20.368;2023-12-22T11:50:35;2.67;;;1.90;;
14797;SDS011;7490;63.708;20.368;2023-12-22T11:53:17;3.63;;;2.60;;
14797;SDS011;7490;63.708;20.368;2023-12-22T11:55:56;3.20;;;2.37;;
14797;SDS011;7490;63.708;20.368;2023-12-22T11:58:33;3.63;;;2.23;;
14797;SDS011;7490;63.708;20.368;2023-12-22T12:01:16;4.43;;;2.17;;
14797;SDS011;7490;63.708;20.368;2023-12-22T12:08:54;2.70;;;2.37;;
14797;SDS011;7490;63.708;20.368;2023-12-22T12:11:23;4.53;;;2.37;;
14797;SDS011;7490;63.708;20.368;2023-12-22T12:14:09;2.70;;;2.10;;
14797;SDS011;7490;63.708;20.368;2023-12-22T12:16:38;3.10;;;2.43;;
14797;SDS011;7490;63.708;20.368;2023-12-22T12:19:07;4.63;;;2.80;;
14797;SDS011;7490;63.708;20.368;2023-12-22T12:21:34;3.20;;;2.63;;
14797;SDS011;7490;63.708;20.368;2023-12-22T12:23:59;3.57;;;2.47;;
14797;SDS011;7490;63.708;20.368;2023-12-22T12:26:25;5.37;;;2.87;;
14797;SDS011;7490;63.708;20.368;2023-12-22T12:28:52;3.37;;;2.60;;
14797;SDS011;7490;63.708;20.368;2023-12-22T12:31:18;3.30;;;2.77;;
14797;SDS011;7490;63.708;20.368;2023-12-22T12:33:43;5.43;;;3.00;;
14797;SDS011;7490;63.708;20.368;2023-12-22T12:36:10;5.13;;;2.83;;
14797;SDS011;7490;63.708;20.368;2023-12-22T12:38:54;3.20;;;2.70;;
14797;SDS011;7490;63.708;20.368;2023-12-22T12:41:28;2.83;;;2.30;;
14797;SDS011;7490;63.708;20.368;2023-12-22T12:43:56;4.33;;;2.03;;
14797;SDS011;7490;63.708;20.368;2023-12-22T12:46:23;2.47;;;2.10;;
14797;SDS011;7490;63.708;20.368;2023-12-22T12:48:48;2.80;;;2.30;;
14797;SDS011;7490;63.708;20.368;2023-12-22T12:51:27;2.30;;;2.10;;
14797;SDS011;7490;63.708;20.368;2023-12-22T12:53:53;3.03;;;2.03;;
14797;SDS011;7490;63.708;20.368;2023-12-22T12:56:18;2.83;;;2.10;;
14797;SDS011;7490;63.708;20.368;2023-12-22T12:58:44;2.83;;;2.17;;
14797;SDS011;7490;63.708;20.368;2023-12-22T13:01:10;2.13;;;1.93;;
14797;SDS011;7490;63.708;20.368;2023-12-22T13:03:51;2.23;;;2.03;;
14797;SDS011;7490;63.708;20.368;2023-12-22T13:06:18;2.13;;;1.92;;
14797;SDS011;7490;63.708;20.368;2023-12-22T13:08:50;2.43;;;1.80;;
14797;SDS011;7490;63.708;20.368;2023-12-22T13:11:20;2.17;;;1.80;;
14797;SDS011;7490;63.708;20.368;2023-12-22T13:13:52;9.30;;;2.20;;
14797;SDS011;7490;63.708;20.368;2023-12-22T13:16:19;2.58;;;1.80;;
14797;SDS011;7490;63.708;20.368;2023-12-22T13:18:46;2.58;;;1.90;;
14797;SDS011;7490;63.708;20.368;2023-12-22T13:21:12;1.77;;;1.30;;
14797;SDS011;7490;63.708;20.368;2023-12-22T13:23:39;2.22;;;1.98;;
14797;SDS011;7490;63.708;20.368;2023-12-22T13:26:05;1.92;;;1.80;;
14797;SDS011;7490;63.708;20.368;2023-12-22T13:28:30;2.30;;;2.10;;
14797;SDS011;7490;63.708;20.368;2023-12-22T13:30:56;2.03;;;1.90;;
14797;SDS011;7490;63.708;20.368;2023-12-22T13:33:22;2.33;;;1.80;;
14797;SDS011;7490;63.708;20.368;2023-12-22T13:35:55;1.83;;;1.50;;
14797;SDS011;7490;63.708;20.368;2023-12-22T13:38:22;1.83;;;1.55;;
14797;SDS011;7490;63.708;20.368;2023-12-22T13:40:49;1.65;;;1.55;;
14797;SDS011;7490;63.708;20.368;2023-12-22T13:43:14;1.97;;;1.87;;
14797;SDS011;7490;63.708;20.368;2023-12-22T13:45:40;2.53;;;1.97;;
14797;SDS011;7490;63.708;20.368;2023-12-22T13:48:06;6.23;;;2.27;;
14797;SDS011;7490;63.708;20.368;2023-12-22T13:50:32;4.25;;;2.20;;
14797;SDS011;7490;63.708;20.368;2023-12-22T13:53:10;2.20;;;2.00;;
14797;SDS011;7490;63.708;20.368;2023-12-22T13:55:36;3.53;;;2.10;;
14797;SDS011;7490;63.708;20.368;2023-12-22T13:58:02;3.35;;;2.28;;
14797;SDS011;7490;63.708;20.368;2023-12-22T14:00:29;3.20;;;2.90;;
14797;SDS011;7490;63.708;20.368;2023-12-22T14:02:56;4.20;;;2.45;;
14797;SDS011;7490;63.708;20.368;2023-12-22T14:05:22;3.22;;;2.20;;
14797;SDS011;7490;63.708;20.368;2023-12-22T14:07:48;4.30;;;2.47;;
14797;SDS011;7490;63.708;20.368;2023-12-22T14:10:14;2.67;;;2.33;;
14797;SDS011;7490;63.708;20.368;2023-12-22T14:12:40;3.07;;;2.70;;
14797;SDS011;7490;63.708;20.368;2023-12-22T14:15:07;4.97;;;2.80;;
14797;SDS011;7490;63.708;20.368;2023-12-22T14:17:34;4.70;;;3.03;;
14797;SDS011;7490;63.708;20.368;2023-12-22T14:20:00;3.53;;;2.03;;
14797;SDS011;7490;63.708;20.368;2023-12-22T14:22:25;2.73;;;2.17;;
14797;SDS011;7490;63.708;20.368;2023-12-22T14:24:51;4.83;;;2.60;;
14797;SDS011;7490;63.708;20.368;2023-12-22T14:27:17;3.28;;;2.50;;
14797;SDS011;7490;63.708;20.368;2023-12-22T14:29:44;3.75;;;2.85;;
14797;SDS011;7490;63.708;20.368;2023-12-22T14:32:10;3.70;;;2.80;;
14797;SDS011;7490;63.708;20.368;2023-12-22T14:34:40;4.32;;;2.75;;
14797;SDS011;7490;63.708;20.368;2023-12-22T14:37:06;4.57;;;2.72;;
14797;SDS011;7490;63.708;20.368;2023-12-22T14:39:31;4.07;;;2.50;;
14797;SDS011;7490;63.708;20.368;2023-12-22T14:41:58;3.38;;;2.40;;
14797;SDS011;7490;63.708;20.368;2023-12-22T14:44:24;4.68;;;3.20;;
14797;SDS011;7490;63.708;20.368;2023-12-22T14:46:50;5.47;;;3.23;;
14797;SDS011;7490;63.708;20.368;2023-12-22T14:49:16;5.30;;;3.27;;
14797;SDS011;7490;63.708;20.368;2023-12-22T14:51:43;4.43;;;3.10;;
14797;SDS011;7490;63.708;20.368;2023-12-22T14:54:08;6.17;;;3.30;;
14797;SDS011;7490;63.708;20.368;2023-12-22T14:56:34;6.23;;;3.30;;
14797;SDS011;7490;63.708;20.368;2023-12-22T14:59:03;5.05;;;3.72;;
14797;SDS011;7490;63.708;20.368;2023-12-22T15:01:29;5.23;;;3.63;;
14797;SDS011;7490;63.708;20.368;2023-12-22T15:03:58;6.20;;;3.38;;